sensor_id;sensor_type;location;lat;lon;timestamp;temperature;humidity
52943;DHT22;38809;53.300;6.614;2023-02-26T00:00:27;2.80;99.90
52943;DHT22;38809;53.300;6.614;2023-02-26T00:02:53;2.80;99.90
52943;DHT22;38809;53.300;6.614;2023-02-26T00:05:18;3.80;99.90
52943;DHT22;38809;53.300;6.614;2023-02-26T00:07:44;3.10;99.90
52943;DHT22;38809;53.300;6.614;2023-02-26T00:10:12;2.60;99.90
52943;DHT22;38809;53.300;6.614;2023-02-26T00:12:38;3.10;99.90
52943;DHT22;38809;53.300;6.614;2023-02-26T00:15:05;2.30;99.90
52943;DHT22;38809;53.300;6.614;2023-02-26T00:20:36;2.10;99.90
52943;DHT22;38809;53.300;6.614;2023-02-26T00:23:01;2.30;99.90
52943;DHT22;38809;53.300;6.614;2023-02-26T00:25:27;2.20;99.90
52943;DHT22;38809;53.300;6.614;2023-02-26T00:27:53;2.20;99.90
52943;DHT22;38809;53.300;6.614;2023-02-26T00:30:19;2.20;99.90
52943;DHT22;38809;53.300;6.614;2023-02-26T00:32:45;2.20;99.90
52943;DHT22;38809;53.300;6.614;2023-02-26T00:35:14;2.30;99.90
52943;DHT22;38809;53.300;6.614;2023-02-26T00:38:02;2.20;99.90
52943;DHT22;38809;53.300;6.614;2023-02-26T00:40:39;2.10;99.90
52943;DHT22;38809;53.300;6.614;2023-02-26T00:43:07;2.00;99.90
52943;DHT22;38809;53.300;6.614;2023-02-26T00:45:34;2.00;99.90
52943;DHT22;38809;53.300;6.614;2023-02-26T00:50:44;1.80;99.90
52943;DHT22;38809;53.300;6.614;2023-02-26T00:53:23;1.80;99.90
52943;DHT22;38809;53.300;6.614;2023-02-26T00:55:51;1.70;99.90
52943;DHT22;38809;53.300;6.614;2023-02-26T00:58:17;2.90;99.90
52943;DHT22;38809;53.300;6.614;2023-02-26T01:00:42;1.70;99.90
52943;DHT22;38809;53.300;6.614;2023-02-26T01:03:08;1.80;99.90
52943;DHT22;38809;53.300;6.614;2023-02-26T01:05:35;1.60;99.90
52943;DHT22;38809;53.300;6.614;2023-02-26T01:08:13;1.50;99.90
52943;DHT22;38809;53.300;6.614;2023-02-26T01:10:40;1.40;99.90
52943;DHT22;38809;53.300;6.614;2023-02-26T01:13:06;1.20;99.90
52943;DHT22;38809;53.300;6.614;2023-02-26T01:15:32;1.10;99.90
52943;DHT22;38809;53.300;6.614;2023-02-26T01:18:04;1.00;99.90
52943;DHT22;38809;53.300;6.614;2023-02-26T01:20:37;1.00;99.90
52943;DHT22;38809;53.300;6.614;2023-02-26T01:23:08;2.80;99.90
52943;DHT22;38809;53.300;6.614;2023-02-26T01:25:46;0.80;99.90
52943;DHT22;38809;53.300;6.614;2023-02-26T01:28:13;0.70;99.90
52943;DHT22;38809;53.300;6.614;2023-02-26T01:30:39;0.70;99.90
52943;DHT22;38809;53.300;6.614;2023-02-26T01:38:53;0.60;99.90
52943;DHT22;38809;53.300;6.614;2023-02-26T01:41:38;0.90;99.90
52943;DHT22;38809;53.300;6.614;2023-02-26T01:49:02;0.80;99.90
52943;DHT22;38809;53.300;6.614;2023-02-26T01:51:51;0.80;99.90
52943;DHT22;38809;53.300;6.614;2023-02-26T01:54:20;0.70;99.90
52943;DHT22;38809;53.300;6.614;2023-02-26T01:56:53;1.50;99.90
52943;DHT22;38809;53.300;6.614;2023-02-26T01:59:19;0.70;99.90
52943;DHT22;38809;53.300;6.614;2023-02-26T02:01:55;0.90;99.90
52943;DHT22;38809;53.300;6.614;2023-02-26T02:04:23;0.60;99.90
52943;DHT22;38809;53.300;6.614;2023-02-26T02:06:49;0.70;99.90
52943;DHT22;38809;53.300;6.614;2023-02-26T02:09:14;2.40;99.90
52943;DHT22;38809;53.300;6.614;2023-02-26T02:17:54;0.70;99.90
52943;DHT22;38809;53.300;6.614;2023-02-26T02:33:56;0.70;99.90
52943;DHT22;38809;53.300;6.614;2023-02-26T02:36:34;0.60;99.90
52943;DHT22;38809;53.300;6.614;2023-02-26T02:39:09;1.30;99.90
52943;DHT22;38809;53.300;6.614;2023-02-26T02:41:43;0.70;99.90
52943;DHT22;38809;53.300;6.614;2023-02-26T02:44:13;1.60;99.90
52943;DHT22;38809;53.300;6.614;2023-02-26T02:46:42;0.60;99.90
52943;DHT22;38809;53.300;6.614;2023-02-26T02:49:24;2.50;99.90
52943;DHT22;38809;53.300;6.614;2023-02-26T02:52:02;0.70;99.90
52943;DHT22;38809;53.300;6.614;2023-02-26T02:54:45;2.20;99.90
52943;DHT22;38809;53.300;6.614;2023-02-26T02:57:16;0.70;99.90
52943;DHT22;38809;53.300;6.614;2023-02-26T02:59:46;0.60;99.90
52943;DHT22;38809;53.300;6.614;2023-02-26T03:02:41;2.00;99.90
52943;DHT22;38809;53.300;6.614;2023-02-26T03:05:07;0.50;99.90
52943;DHT22;38809;53.300;6.614;2023-02-26T03:07:37;2.50;99.90
52943;DHT22;38809;53.300;6.614;2023-02-26T03:10:04;2.30;99.90
52943;DHT22;38809;53.300;6.614;2023-02-26T03:12:31;0.50;99.90
52943;DHT22;38809;53.300;6.614;2023-02-26T03:14:57;1.20;99.90
52943;DHT22;38809;53.300;6.614;2023-02-26T03:17:45;1.30;99.90
52943;DHT22;38809;53.300;6.614;2023-02-26T03:20:24;2.00;99.90
52943;DHT22;38809;53.300;6.614;2023-02-26T03:23:11;0.60;99.90
52943;DHT22;38809;53.300;6.614;2023-02-26T03:25:53;0.60;99.90
52943;DHT22;38809;53.300;6.614;2023-02-26T03:31:04;0.50;99.90
52943;DHT22;38809;53.300;6.614;2023-02-26T03:33:42;0.50;99.90
52943;DHT22;38809;53.300;6.614;2023-02-26T03:36:18;0.50;99.90
52943;DHT22;38809;53.300;6.614;2023-02-26T03:38:49;2.70;99.90
52943;DHT22;38809;53.300;6.614;2023-02-26T03:41:36;2.80;99.90
52943;DHT22;38809;53.300;6.614;2023-02-26T03:44:16;1.80;99.90
52943;DHT22;38809;53.300;6.614;2023-02-26T03:46:48;0.70;99.90
52943;DHT22;38809;53.300;6.614;2023-02-26T03:49:22;1.10;99.90
52943;DHT22;38809;53.300;6.614;2023-02-26T03:51:49;0.70;99.90
52943;DHT22;38809;53.300;6.614;2023-02-26T03:54:24;0.90;99.90
52943;DHT22;38809;53.300;6.614;2023-02-26T03:56:51;0.90;99.90
52943;DHT22;38809;53.300;6.614;2023-02-26T03:59:18;0.90;99.90
52943;DHT22;38809;53.300;6.614;2023-02-26T04:06:55;2.40;99.90
52943;DHT22;38809;53.300;6.614;2023-02-26T04:09:21;1.00;99.90
52943;DHT22;38809;53.300;6.614;2023-02-26T04:11:48;2.00;99.90
52943;DHT22;38809;53.300;6.614;2023-02-26T04:14:15;1.00;99.90
52943;DHT22;38809;53.300;6.614;2023-02-26T04:16:42;1.00;99.90
52943;DHT22;38809;53.300;6.614;2023-02-26T04:19:08;0.90;99.90
52943;DHT22;38809;53.300;6.614;2023-02-26T04:21:34;0.70;99.90
52943;DHT22;38809;53.300;6.614;2023-02-26T04:23:59;0.90;99.90
52943;DHT22;38809;53.300;6.614;2023-02-26T04:26:25;0.80;99.90
52943;DHT22;38809;53.300;6.614;2023-02-26T04:28:51;0.70;99.90
52943;DHT22;38809;53.300;6.614;2023-02-26T04:31:16;0.60;99.90
52943;DHT22;38809;53.300;6.614;2023-02-26T04:33:43;2.40;99.90
52943;DHT22;38809;53.300;6.614;2023-02-26T04:36:09;1.50;99.90
52943;DHT22;38809;53.300;6.614;2023-02-26T04:38:35;2.20;99.90
52943;DHT22;38809;53.300;6.614;2023-02-26T04:41:00;0.90;99.90
52943;DHT22;38809;53.300;6.614;2023-02-26T04:43:26;2.10;99.90
52943;DHT22;38809;53.300;6.614;2023-02-26T04:45:52;1.20;99.90
52943;DHT22;38809;53.300;6.614;2023-02-26T04:48:18;2.50;99.90
52943;DHT22;38809;53.300;6.614;2023-02-26T04:50:44;1.00;99.90
52943;DHT22;38809;53.300;6.614;2023-02-26T04:53:09;1.40;99.90
52943;DHT22;38809;53.300;6.614;2023-02-26T04:55:35;0.70;99.90
52943;DHT22;38809;53.300;6.614;2023-02-26T04:58:01;1.80;99.90
52943;DHT22;38809;53.300;6.614;2023-02-26T05:00:27;2.20;99.90
52943;DHT22;38809;53.300;6.614;2023-02-26T05:02:53;0.80;99.90
52943;DHT22;38809;53.300;6.614;2023-02-26T05:05:19;0.70;99.90
52943;DHT22;38809;53.300;6.614;2023-02-26T05:07:45;0.70;99.90
52943;DHT22;38809;53.300;6.614;2023-02-26T05:10:11;0.70;99.90
52943;DHT22;38809;53.300;6.614;2023-02-26T05:12:37;2.20;99.90
52943;DHT22;38809;53.300;6.614;2023-02-26T05:15:04;0.60;99.90
52943;DHT22;38809;53.300;6.614;2023-02-26T05:17:30;0.70;99.90
52943;DHT22;38809;53.300;6.614;2023-02-26T05:19:55;2.50;99.90
52943;DHT22;38809;53.300;6.614;2023-02-26T05:22:21;1.90;99.90
52943;DHT22;38809;53.300;6.614;2023-02-26T05:24:47;1.80;99.90
52943;DHT22;38809;53.300;6.614;2023-02-26T05:27:13;2.60;99.90
52943;DHT22;38809;53.300;6.614;2023-02-26T05:29:39;0.80;99.90
52943;DHT22;38809;53.300;6.614;2023-02-26T05:32:06;1.20;99.90
52943;DHT22;38809;53.300;6.614;2023-02-26T05:34:32;0.90;99.90
52943;DHT22;38809;53.300;6.614;2023-02-26T05:36:58;0.30;99.90
52943;DHT22;38809;53.300;6.614;2023-02-26T05:39:23;0.30;99.90
52943;DHT22;38809;53.300;6.614;2023-02-26T05:41:49;0.30;99.90
52943;DHT22;38809;53.300;6.614;2023-02-26T05:44:16;0.30;99.90
52943;DHT22;38809;53.300;6.614;2023-02-26T05:46:42;2.00;99.90
52943;DHT22;38809;53.300;6.614;2023-02-26T05:49:08;1.70;99.90
52943;DHT22;38809;53.300;6.614;2023-02-26T05:51:33;0.10;99.90
52943;DHT22;38809;53.300;6.614;2023-02-26T05:53:59;0.30;99.90
52943;DHT22;38809;53.300;6.614;2023-02-26T05:56:25;0.10;99.90
52943;DHT22;38809;53.300;6.614;2023-02-26T05:58:50;2.10;99.90
52943;DHT22;38809;53.300;6.614;2023-02-26T06:01:16;0.20;99.90
52943;DHT22;38809;53.300;6.614;2023-02-26T06:03:42;1.80;99.90
52943;DHT22;38809;53.300;6.614;2023-02-26T06:06:10;0.40;99.90
52943;DHT22;38809;53.300;6.614;2023-02-26T06:08:36;0.00;99.90
52943;DHT22;38809;53.300;6.614;2023-02-26T06:11:03;0.00;99.90
52943;DHT22;38809;53.300;6.614;2023-02-26T06:13:29;0.00;99.90
52943;DHT22;38809;53.300;6.614;2023-02-26T06:15:55;0.10;99.90
52943;DHT22;38809;53.300;6.614;2023-02-26T06:18:20;0.10;99.90
52943;DHT22;38809;53.300;6.614;2023-02-26T06:20:46;0.00;99.90
52943;DHT22;38809;53.300;6.614;2023-02-26T06:23:12;0.00;99.90
52943;DHT22;38809;53.300;6.614;2023-02-26T06:25:40;0.70;99.90
52943;DHT22;38809;53.300;6.614;2023-02-26T06:28:06;0.30;99.90
52943;DHT22;38809;53.300;6.614;2023-02-26T06:30:32;0.50;99.90
52943;DHT22;38809;53.300;6.614;2023-02-26T06:32:58;1.40;99.90
52943;DHT22;38809;53.300;6.614;2023-02-26T06:35:23;0.20;99.90
52943;DHT22;38809;53.300;6.614;2023-02-26T06:37:49;0.30;99.90
52943;DHT22;38809;53.300;6.614;2023-02-26T06:40:15;1.20;99.90
52943;DHT22;38809;53.300;6.614;2023-02-26T06:42:40;1.50;99.90
52943;DHT22;38809;53.300;6.614;2023-02-26T06:45:07;0.30;99.90
52943;DHT22;38809;53.300;6.614;2023-02-26T06:47:32;0.20;99.90
52943;DHT22;38809;53.300;6.614;2023-02-26T06:49:58;0.40;99.90
52943;DHT22;38809;53.300;6.614;2023-02-26T06:52:24;0.50;99.90
52943;DHT22;38809;53.300;6.614;2023-02-26T06:54:50;0.60;99.90
52943;DHT22;38809;53.300;6.614;2023-02-26T06:57:16;0.60;99.90
52943;DHT22;38809;53.300;6.614;2023-02-26T06:59:41;2.70;99.90
52943;DHT22;38809;53.300;6.614;2023-02-26T07:02:15;0.60;99.90
52943;DHT22;38809;53.300;6.614;2023-02-26T07:04:41;0.50;99.90
52943;DHT22;38809;53.300;6.614;2023-02-26T07:07:06;1.80;99.90
52943;DHT22;38809;53.300;6.614;2023-02-26T07:09:32;1.70;99.90
52943;DHT22;38809;53.300;6.614;2023-02-26T07:11:58;2.30;99.90
52943;DHT22;38809;53.300;6.614;2023-02-26T07:14:23;0.90;99.90
52943;DHT22;38809;53.300;6.614;2023-02-26T07:16:49;1.20;99.90
52943;DHT22;38809;53.300;6.614;2023-02-26T07:19:14;1.00;99.90
52943;DHT22;38809;53.300;6.614;2023-02-26T07:21:43;2.10;99.90
52943;DHT22;38809;53.300;6.614;2023-02-26T07:24:09;0.90;99.90
52943;DHT22;38809;53.300;6.614;2023-02-26T07:26:35;1.00;99.90
52943;DHT22;38809;53.300;6.614;2023-02-26T07:29:00;2.20;99.90
52943;DHT22;38809;53.300;6.614;2023-02-26T07:31:26;1.30;99.90
52943;DHT22;38809;53.300;6.614;2023-02-26T07:33:52;0.90;99.90
52943;DHT22;38809;53.300;6.614;2023-02-26T07:36:18;0.90;99.90
52943;DHT22;38809;53.300;6.614;2023-02-26T07:38:44;1.10;99.90
52943;DHT22;38809;53.300;6.614;2023-02-26T07:41:09;1.30;99.90
52943;DHT22;38809;53.300;6.614;2023-02-26T07:43:35;1.70;99.90
52943;DHT22;38809;53.300;6.614;2023-02-26T07:46:01;1.00;99.90
52943;DHT22;38809;53.300;6.614;2023-02-26T07:48:27;1.00;99.90
52943;DHT22;38809;53.300;6.614;2023-02-26T07:50:53;1.20;99.90
52943;DHT22;38809;53.300;6.614;2023-02-26T07:53:19;2.80;99.90
52943;DHT22;38809;53.300;6.614;2023-02-26T07:55:44;2.00;99.90
52943;DHT22;38809;53.300;6.614;2023-02-26T07:58:10;1.90;99.90
52943;DHT22;38809;53.300;6.614;2023-02-26T08:00:36;1.90;99.90
52943;DHT22;38809;53.300;6.614;2023-02-26T08:03:01;2.00;99.90
52943;DHT22;38809;53.300;6.614;2023-02-26T08:05:27;3.10;99.90
52943;DHT22;38809;53.300;6.614;2023-02-26T08:07:53;2.50;99.90
52943;DHT22;38809;53.300;6.614;2023-02-26T08:10:18;3.00;99.90
52943;DHT22;38809;53.300;6.614;2023-02-26T08:12:44;2.70;99.90
52943;DHT22;38809;53.300;6.614;2023-02-26T08:15:10;2.80;99.90
52943;DHT22;38809;53.300;6.614;2023-02-26T08:17:39;3.10;99.90
52943;DHT22;38809;53.300;6.614;2023-02-26T08:20:06;3.10;99.90
52943;DHT22;38809;53.300;6.614;2023-02-26T08:22:32;3.20;99.90
52943;DHT22;38809;53.300;6.614;2023-02-26T08:24:58;3.30;99.90
52943;DHT22;38809;53.300;6.614;2023-02-26T08:27:24;3.40;99.90
52943;DHT22;38809;53.300;6.614;2023-02-26T08:29:50;3.60;99.90
52943;DHT22;38809;53.300;6.614;2023-02-26T08:32:17;3.60;99.90
52943;DHT22;38809;53.300;6.614;2023-02-26T08:34:44;3.60;99.90
52943;DHT22;38809;53.300;6.614;2023-02-26T08:37:11;3.70;99.90
52943;DHT22;38809;53.300;6.614;2023-02-26T08:39:38;3.80;99.90
52943;DHT22;38809;53.300;6.614;2023-02-26T08:42:08;3.80;99.90
52943;DHT22;38809;53.300;6.614;2023-02-26T08:44:34;4.10;99.90
52943;DHT22;38809;53.300;6.614;2023-02-26T08:47:00;3.70;99.90
52943;DHT22;38809;53.300;6.614;2023-02-26T08:49:29;4.10;99.90
52943;DHT22;38809;53.300;6.614;2023-02-26T08:51:54;4.20;99.90
52943;DHT22;38809;53.300;6.614;2023-02-26T08:54:20;4.10;99.90
52943;DHT22;38809;53.300;6.614;2023-02-26T08:56:46;4.20;99.90
52943;DHT22;38809;53.300;6.614;2023-02-26T08:59:11;4.30;99.90
52943;DHT22;38809;53.300;6.614;2023-02-26T09:01:38;4.20;99.90
52943;DHT22;38809;53.300;6.614;2023-02-26T09:04:03;4.30;99.90
52943;DHT22;38809;53.300;6.614;2023-02-26T09:06:29;4.20;99.90
52943;DHT22;38809;53.300;6.614;2023-02-26T09:08:55;4.30;99.90
52943;DHT22;38809;53.300;6.614;2023-02-26T09:11:21;4.20;99.90
52943;DHT22;38809;53.300;6.614;2023-02-26T09:13:46;4.30;99.90
52943;DHT22;38809;53.300;6.614;2023-02-26T09:16:12;4.40;99.90
52943;DHT22;38809;53.300;6.614;2023-02-26T09:18:38;4.50;99.90
52943;DHT22;38809;53.300;6.614;2023-02-26T09:21:04;4.60;99.90
52943;DHT22;38809;53.300;6.614;2023-02-26T09:23:29;4.50;99.90
52943;DHT22;38809;53.300;6.614;2023-02-26T09:25:56;4.90;99.90
52943;DHT22;38809;53.300;6.614;2023-02-26T09:28:22;4.70;99.90
52943;DHT22;38809;53.300;6.614;2023-02-26T09:30:54;5.00;99.90
52943;DHT22;38809;53.300;6.614;2023-02-26T09:33:21;4.50;99.90
52943;DHT22;38809;53.300;6.614;2023-02-26T09:35:49;4.50;99.90
52943;DHT22;38809;53.300;6.614;2023-02-26T09:38:15;4.40;99.90
52943;DHT22;38809;53.300;6.614;2023-02-26T09:40:50;4.50;99.90
52943;DHT22;38809;53.300;6.614;2023-02-26T09:45:47;4.50;99.90
52943;DHT22;38809;53.300;6.614;2023-02-26T09:48:17;4.60;99.90
52943;DHT22;38809;53.300;6.614;2023-02-26T09:50:52;4.80;99.90
52943;DHT22;38809;53.300;6.614;2023-02-26T09:53:34;5.00;99.90
52943;DHT22;38809;53.300;6.614;2023-02-26T09:56:18;5.10;99.90
52943;DHT22;38809;53.300;6.614;2023-02-26T09:58:46;5.00;99.90
52943;DHT22;38809;53.300;6.614;2023-02-26T10:01:20;4.90;99.90
52943;DHT22;38809;53.300;6.614;2023-02-26T10:09:34;4.70;99.90
52943;DHT22;38809;53.300;6.614;2023-02-26T10:12:07;4.50;99.90
52943;DHT22;38809;53.300;6.614;2023-02-26T10:14:50;4.50;99.90
52943;DHT22;38809;53.300;6.614;2023-02-26T10:19:59;4.90;99.90
52943;DHT22;38809;53.300;6.614;2023-02-26T10:25:14;5.40;99.90
52943;DHT22;38809;53.300;6.614;2023-02-26T10:30:50;5.50;99.90
52943;DHT22;38809;53.300;6.614;2023-02-26T10:33:28;5.40;99.90
52943;DHT22;38809;53.300;6.614;2023-02-26T10:36:08;5.60;99.90
52943;DHT22;38809;53.300;6.614;2023-02-26T10:38:37;5.60;99.90
52943;DHT22;38809;53.300;6.614;2023-02-26T10:41:07;5.50;99.90
52943;DHT22;38809;53.300;6.614;2023-02-26T10:43:39;5.40;99.90
52943;DHT22;38809;53.300;6.614;2023-02-26T10:51:27;5.50;99.90
52943;DHT22;38809;53.300;6.614;2023-02-26T10:54:12;6.70;99.90
52943;DHT22;38809;53.300;6.614;2023-02-26T10:56:39;6.00;99.90
52943;DHT22;38809;53.300;6.614;2023-02-26T10:59:05;6.00;99.90
52943;DHT22;38809;53.300;6.614;2023-02-26T11:01:31;5.90;99.90
52943;DHT22;38809;53.300;6.614;2023-02-26T11:04:18;5.80;99.90
52943;DHT22;38809;53.300;6.614;2023-02-26T11:06:59;5.50;99.90
52943;DHT22;38809;53.300;6.614;2023-02-26T11:09:38;5.70;99.90
52943;DHT22;38809;53.300;6.614;2023-02-26T11:12:13;5.80;99.90
52943;DHT22;38809;53.300;6.614;2023-02-26T11:14:41;5.60;99.90
52943;DHT22;38809;53.300;6.614;2023-02-26T11:17:21;5.80;99.90
52943;DHT22;38809;53.300;6.614;2023-02-26T11:20:13;6.00;99.90
52943;DHT22;38809;53.300;6.614;2023-02-26T11:22:46;6.00;99.90
52943;DHT22;38809;53.300;6.614;2023-02-26T11:25:16;5.80;99.90
52943;DHT22;38809;53.300;6.614;2023-02-26T11:27:42;6.00;99.90
52943;DHT22;38809;53.300;6.614;2023-02-26T11:30:16;5.90;99.90
52943;DHT22;38809;53.300;6.614;2023-02-26T11:32:43;5.10;99.90
52943;DHT22;38809;53.300;6.614;2023-02-26T11:35:14;5.60;99.90
52943;DHT22;38809;53.300;6.614;2023-02-26T11:37:46;5.30;99.90
52943;DHT22;38809;53.300;6.614;2023-02-26T11:40:23;5.50;99.90
52943;DHT22;38809;53.300;6.614;2023-02-26T11:42:56;5.80;99.90
52943;DHT22;38809;53.300;6.614;2023-02-26T11:45:23;6.50;99.90
52943;DHT22;38809;53.300;6.614;2023-02-26T11:48:02;6.00;99.90
52943;DHT22;38809;53.300;6.614;2023-02-26T11:50:29;5.50;99.90
52943;DHT22;38809;53.300;6.614;2023-02-26T11:53:05;5.20;99.90
52943;DHT22;38809;53.300;6.614;2023-02-26T11:55:37;5.00;99.90
52943;DHT22;38809;53.300;6.614;2023-02-26T11:58:20;5.30;99.90
52943;DHT22;38809;53.300;6.614;2023-02-26T12:00:47;5.80;99.90
52943;DHT22;38809;53.300;6.614;2023-02-26T12:03:26;5.90;99.90
52943;DHT22;38809;53.300;6.614;2023-02-26T12:05:57;6.20;99.90
52943;DHT22;38809;53.300;6.614;2023-02-26T12:08:33;5.70;99.90
52943;DHT22;38809;53.300;6.614;2023-02-26T12:20:07;6.10;99.90
52943;DHT22;38809;53.300;6.614;2023-02-26T12:25:53;5.40;99.90
52943;DHT22;38809;53.300;6.614;2023-02-26T12:28:38;5.30;99.90
52943;DHT22;38809;53.300;6.614;2023-02-26T12:45:15;6.00;99.90
52943;DHT22;38809;53.300;6.614;2023-02-26T13:13:48;5.80;99.90
52943;DHT22;38809;53.300;6.614;2023-02-26T13:19:22;5.30;99.90
52943;DHT22;38809;53.300;6.614;2023-02-26T13:21:59;5.80;99.90
52943;DHT22;38809;53.300;6.614;2023-02-26T13:24:30;6.30;99.90
52943;DHT22;38809;53.300;6.614;2023-02-26T13:27:00;5.60;99.90
52943;DHT22;38809;53.300;6.614;2023-02-26T13:29:33;5.80;99.90
52943;DHT22;38809;53.300;6.614;2023-02-26T13:32:16;5.90;99.90
52943;DHT22;38809;53.300;6.614;2023-02-26T13:34:56;6.00;99.90
52943;DHT22;38809;53.300;6.614;2023-02-26T13:40:21;5.60;99.90
52943;DHT22;38809;53.300;6.614;2023-02-26T13:43:13;5.80;99.90
52943;DHT22;38809;53.300;6.614;2023-02-26T13:51:45;5.80;99.90
52943;DHT22;38809;53.300;6.614;2023-02-26T14:04:58;5.30;99.90
52943;DHT22;38809;53.300;6.614;2023-02-26T14:07:53;5.20;99.90
52943;DHT22;38809;53.300;6.614;2023-02-26T14:13:22;5.20;99.90
52943;DHT22;38809;53.300;6.614;2023-02-26T14:21:26;5.30;99.90
52943;DHT22;38809;53.300;6.614;2023-02-26T14:26:35;5.50;99.90
52943;DHT22;38809;53.300;6.614;2023-02-26T14:31:51;5.20;99.90
52943;DHT22;38809;53.300;6.614;2023-02-26T14:34:22;5.00;99.90
52943;DHT22;38809;53.300;6.614;2023-02-26T14:36:52;5.20;99.90
52943;DHT22;38809;53.300;6.614;2023-02-26T14:39:43;5.20;99.90
52943;DHT22;38809;53.300;6.614;2023-02-26T14:42:37;5.20;99.90
52943;DHT22;38809;53.300;6.614;2023-02-26T14:47:44;5.40;99.90
52943;DHT22;38809;53.300;6.614;2023-02-26T14:50:15;5.40;99.90
52943;DHT22;38809;53.300;6.614;2023-02-26T15:03:59;5.60;99.90
52943;DHT22;38809;53.300;6.614;2023-02-26T15:09:29;5.30;99.90
52943;DHT22;38809;53.300;6.614;2023-02-26T15:20:01;5.20;99.90
52943;DHT22;38809;53.300;6.614;2023-02-26T15:25:01;5.30;99.90
52943;DHT22;38809;53.300;6.614;2023-02-26T15:27:29;5.50;99.90
52943;DHT22;38809;53.300;6.614;2023-02-26T15:29:56;5.20;99.90
52943;DHT22;38809;53.300;6.614;2023-02-26T15:32:28;5.70;99.90
52943;DHT22;38809;53.300;6.614;2023-02-26T15:35:06;5.40;99.90
52943;DHT22;38809;53.300;6.614;2023-02-26T15:37:32;5.30;99.90
52943;DHT22;38809;53.300;6.614;2023-02-26T15:39:58;5.20;99.90
52943;DHT22;38809;53.300;6.614;2023-02-26T15:42:29;5.30;99.90
52943;DHT22;38809;53.300;6.614;2023-02-26T15:44:59;5.30;99.90
52943;DHT22;38809;53.300;6.614;2023-02-26T15:47:27;5.20;99.90
52943;DHT22;38809;53.300;6.614;2023-02-26T15:49:55;4.90;99.90
52943;DHT22;38809;53.300;6.614;2023-02-26T15:52:21;3.20;99.90
52943;DHT22;38809;53.300;6.614;2023-02-26T15:54:59;4.50;99.90
52943;DHT22;38809;53.300;6.614;2023-02-26T15:57:27;4.60;99.90
52943;DHT22;38809;53.300;6.614;2023-02-26T16:00:00;4.70;99.90
52943;DHT22;38809;53.300;6.614;2023-02-26T16:02:29;4.40;99.90
52943;DHT22;38809;53.300;6.614;2023-02-26T16:04:56;4.40;99.90
52943;DHT22;38809;53.300;6.614;2023-02-26T16:07:25;4.40;99.90
52943;DHT22;38809;53.300;6.614;2023-02-26T16:10:05;4.30;99.90
52943;DHT22;38809;53.300;6.614;2023-02-26T16:12:37;4.40;99.90
52943;DHT22;38809;53.300;6.614;2023-02-26T16:15:11;4.40;99.90
52943;DHT22;38809;53.300;6.614;2023-02-26T16:17:47;4.40;99.90
52943;DHT22;38809;53.300;6.614;2023-02-26T16:20:19;5.00;99.90
52943;DHT22;38809;53.300;6.614;2023-02-26T16:22:59;4.30;99.90
52943;DHT22;38809;53.300;6.614;2023-02-26T16:28:21;4.10;99.90
52943;DHT22;38809;53.300;6.614;2023-02-26T16:30:50;4.10;99.90
52943;DHT22;38809;53.300;6.614;2023-02-26T16:33:17;4.10;99.90
52943;DHT22;38809;53.300;6.614;2023-02-26T16:35:48;4.60;99.90
52943;DHT22;38809;53.300;6.614;2023-02-26T16:38:26;4.20;99.90
52943;DHT22;38809;53.300;6.614;2023-02-26T16:40:58;4.50;99.90
52943;DHT22;38809;53.300;6.614;2023-02-26T16:46:00;4.00;99.90
52943;DHT22;38809;53.300;6.614;2023-02-26T16:49:15;4.00;99.90
52943;DHT22;38809;53.300;6.614;2023-02-26T16:51:18;4.00;99.90
52943;DHT22;38809;53.300;6.614;2023-02-26T16:53:57;4.00;99.90
52943;DHT22;38809;53.300;6.614;2023-02-26T16:56:27;4.00;99.90
52943;DHT22;38809;53.300;6.614;2023-02-26T16:59:11;4.10;99.90
52943;DHT22;38809;53.300;6.614;2023-02-26T17:01:41;4.10;99.90
52943;DHT22;38809;53.300;6.614;2023-02-26T17:04:13;4.20;99.90
52943;DHT22;38809;53.300;6.614;2023-02-26T17:06:39;4.20;99.90
52943;DHT22;38809;53.300;6.614;2023-02-26T17:09:06;4.20;99.90
52943;DHT22;38809;53.300;6.614;2023-02-26T17:11:39;4.10;99.90
52943;DHT22;38809;53.300;6.614;2023-02-26T17:14:21;4.40;99.90
52943;DHT22;38809;53.300;6.614;2023-02-26T17:16:49;4.20;99.90
52943;DHT22;38809;53.300;6.614;2023-02-26T17:19:15;4.10;99.90
52943;DHT22;38809;53.300;6.614;2023-02-26T17:21:45;4.10;99.90
52943;DHT22;38809;53.300;6.614;2023-02-26T17:24:21;4.20;99.90
52943;DHT22;38809;53.300;6.614;2023-02-26T17:26:48;4.10;99.90
52943;DHT22;38809;53.300;6.614;2023-02-26T17:29:19;4.10;99.90
52943;DHT22;38809;53.300;6.614;2023-02-26T17:31:48;3.90;99.90
52943;DHT22;38809;53.300;6.614;2023-02-26T17:34:13;3.90;99.90
52943;DHT22;38809;53.300;6.614;2023-02-26T17:36:39;4.50;99.90
52943;DHT22;38809;53.300;6.614;2023-02-26T17:39:05;3.90;99.90
52943;DHT22;38809;53.300;6.614;2023-02-26T17:41:31;4.00;99.90
52943;DHT22;38809;53.300;6.614;2023-02-26T17:43:58;4.00;99.90
52943;DHT22;38809;53.300;6.614;2023-02-26T17:46:24;4.00;99.90
52943;DHT22;38809;53.300;6.614;2023-02-26T17:48:50;3.90;99.90
52943;DHT22;38809;53.300;6.614;2023-02-26T17:51:16;4.20;99.90
52943;DHT22;38809;53.300;6.614;2023-02-26T17:53:41;3.80;99.90
52943;DHT22;38809;53.300;6.614;2023-02-26T17:58:45;3.90;99.90
52943;DHT22;38809;53.300;6.614;2023-02-26T18:01:11;4.00;99.90
52943;DHT22;38809;53.300;6.614;2023-02-26T18:03:37;3.90;99.90
52943;DHT22;38809;53.300;6.614;2023-02-26T18:06:04;4.20;99.90
52943;DHT22;38809;53.300;6.614;2023-02-26T18:08:32;3.90;99.90
52943;DHT22;38809;53.300;6.614;2023-02-26T18:11:00;3.80;99.90
52943;DHT22;38809;53.300;6.614;2023-02-26T18:13:26;3.90;99.90
52943;DHT22;38809;53.300;6.614;2023-02-26T18:15:53;3.60;99.90
52943;DHT22;38809;53.300;6.614;2023-02-26T18:18:21;3.50;99.90
52943;DHT22;38809;53.300;6.614;2023-02-26T18:20:48;3.50;99.90
52943;DHT22;38809;53.300;6.614;2023-02-26T18:23:13;3.50;99.90
52943;DHT22;38809;53.300;6.614;2023-02-26T18:25:43;3.40;99.90
52943;DHT22;38809;53.300;6.614;2023-02-26T18:28:25;3.40;99.90
52943;DHT22;38809;53.300;6.614;2023-02-26T18:30:52;3.40;99.90
52943;DHT22;38809;53.300;6.614;2023-02-26T18:33:19;3.50;99.90
52943;DHT22;38809;53.300;6.614;2023-02-26T18:35:47;3.40;99.90
52943;DHT22;38809;53.300;6.614;2023-02-26T18:38:16;4.20;99.90
52943;DHT22;38809;53.300;6.614;2023-02-26T18:40:42;4.50;99.90
52943;DHT22;38809;53.300;6.614;2023-02-26T18:43:10;3.20;99.90
52943;DHT22;38809;53.300;6.614;2023-02-26T18:45:44;3.00;99.90
52943;DHT22;38809;53.300;6.614;2023-02-26T18:48:11;3.10;99.90
52943;DHT22;38809;53.300;6.614;2023-02-26T18:50:38;3.70;99.90
52943;DHT22;38809;53.300;6.614;2023-02-26T18:53:04;3.80;99.90
52943;DHT22;38809;53.300;6.614;2023-02-26T18:55:29;3.50;99.90
52943;DHT22;38809;53.300;6.614;2023-02-26T18:57:55;3.20;99.90
52943;DHT22;38809;53.300;6.614;2023-02-26T19:00:22;3.10;99.90
52943;DHT22;38809;53.300;6.614;2023-02-26T19:02:48;2.90;99.90
52943;DHT22;38809;53.300;6.614;2023-02-26T19:05:15;2.90;99.90
52943;DHT22;38809;53.300;6.614;2023-02-26T19:07:42;2.70;99.90
52943;DHT22;38809;53.300;6.614;2023-02-26T19:10:09;3.10;99.90